createdAt,value
2022-08-05T00:02:52.595Z,78.71
2022-08-05T00:08:00.863Z,78.69
2022-08-05T00:13:04.699Z,78.56
2022-08-05T00:18:08.034Z,78.81
2022-08-05T00:23:13.017Z,78.83
2022-08-05T00:28:21.117Z,78.87
2022-08-05T00:34:56.659Z,79.18
2022-08-05T00:38:59.489Z,78.76
2022-08-05T00:44:03.826Z,79.12
2022-08-05T00:49:08.677Z,78.76
2022-08-05T00:54:18.216Z,79.29
2022-08-05T00:59:21.865Z,78.87
2022-08-05T01:04:27.028Z,79.23
2022-08-05T01:09:33.729Z,78.82
2022-08-05T01:14:48.318Z,79.06
2022-08-05T01:20:01.118Z,79.35
2022-08-05T01:25:40.976Z,79.00
2022-08-05T01:31:07.997Z,78.78
2022-08-05T01:36:16.188Z,78.98
2022-08-05T01:41:25.490Z,78.90
2022-08-05T01:46:41.364Z,78.98
2022-08-05T01:51:51.791Z,78.86
2022-08-05T01:58:29.946Z,79.11
2022-08-05T02:02:28.528Z,79.34
2022-08-05T02:07:38.166Z,79.12
2022-08-05T02:13:02.706Z,79.10
2022-08-05T02:18:33.296Z,79.48
2022-08-05T02:23:41.557Z,79.21
2022-08-05T02:28:48.920Z,79.27
2022-08-05T02:34:15.047Z,79.25
2022-08-05T02:39:21.736Z,79.46
2022-08-05T02:44:28.068Z,79.54
2022-08-05T02:49:35.916Z,79.23
2022-08-05T02:54:52.176Z,79.73
2022-08-05T02:59:56.190Z,79.77
2022-08-05T03:05:01.353Z,79.73
2022-08-05T03:10:07.360Z,79.50
2022-08-05T03:15:12.299Z,79.91
2022-08-05T03:20:16.158Z,79.39
2022-08-05T03:25:33.533Z,79.76
2022-08-05T03:30:46.643Z,79.61
2022-08-05T03:35:51.813Z,79.27
2022-08-05T03:40:55.360Z,79.18
2022-08-05T03:46:01.281Z,79.16
2022-08-05T03:52:38.697Z,78.92
2022-08-05T03:56:46.565Z,78.79
2022-08-05T04:01:53.937Z,78.23
2022-08-05T04:07:03.304Z,78.22
2022-08-05T04:12:23.870Z,78.06
2022-08-05T04:17:36.389Z,77.80
2022-08-05T04:22:52.858Z,77.54
2022-08-05T04:27:57.298Z,77.23
2022-08-05T04:33:02.500Z,77.47
2022-08-05T04:38:11.660Z,77.32
2022-08-05T04:43:21.962Z,76.72
2022-08-05T04:48:28.458Z,76.69
2022-08-05T04:53:33.354Z,76.45
2022-08-05T04:58:39.089Z,75.85
2022-08-05T05:03:45.306Z,75.40
2022-08-05T05:08:50.049Z,75.26
2022-08-05T05:13:55.277Z,74.62
2022-08-05T05:19:18.619Z,74.37
2022-08-05T05:24:22.993Z,73.64
2022-08-05T05:30:04.209Z,73.32
2022-08-05T05:35:09.590Z,72.66
2022-08-05T05:40:15.984Z,72.11
2022-08-05T05:45:20.530Z,71.41
2022-08-05T05:50:24.270Z,71.17
2022-08-05T05:55:52.511Z,70.73
2022-08-05T06:00:52.573Z,70.03
2022-08-05T06:05:55.876Z,69.67
2022-08-05T06:11:00.560Z,68.97
2022-08-05T06:16:31.503Z,68.32
2022-08-05T06:21:36.799Z,64.08
2022-08-05T06:26:51.021Z,58.92
2022-08-05T06:31:55.039Z,55.73
2022-08-05T06:37:08.347Z,56.56
2022-08-05T06:42:11.867Z,57.15
2022-08-05T06:48:11.699Z,54.95
2022-08-05T06:52:40.467Z,53.41
2022-08-05T06:58:03.305Z,53.59
2022-08-05T07:03:11.981Z,54.62
2022-08-05T07:08:15.683Z,55.13
2022-08-05T07:13:57.089Z,55.40
2022-08-05T07:18:47.769Z,56.81
2022-08-05T07:23:52.241Z,55.98
2022-08-05T07:28:55.875Z,55.71
2022-08-05T07:33:59.938Z,56.98
2022-08-05T07:39:06.641Z,56.79
2022-08-05T07:44:27.981Z,57.41
2022-08-05T07:49:32.337Z,57.46
2022-08-05T07:54:49.282Z,57.28
2022-08-05T07:59:53.643Z,57.40
2022-08-05T08:04:57.526Z,57.08
2022-08-05T08:10:02.614Z,56.78
2022-08-05T08:15:13.912Z,56.64
2022-08-05T08:20:44.657Z,56.64
2022-08-05T08:25:59.774Z,56.34
2022-08-05T08:31:08.029Z,56.31
2022-08-05T08:36:38.404Z,56.40
2022-08-05T08:41:52.275Z,55.81
2022-08-05T08:47:03.933Z,56.63
2022-08-05T08:52:30.728Z,56.53
2022-08-05T08:57:42.327Z,57.14
2022-08-05T09:03:01.150Z,57.22
2022-08-05T09:08:04.785Z,57.45
2022-08-05T09:13:08.324Z,57.60
2022-08-05T09:18:13.397Z,57.21
2022-08-05T09:23:21.533Z,57.23
2022-08-05T09:28:31.469Z,57.06
2022-08-05T09:33:49.256Z,57.24
2022-08-05T09:39:18.056Z,57.09
2022-08-05T09:44:35.943Z,56.93
2022-08-05T09:50:01.408Z,56.39
2022-08-05T09:55:56.964Z,56.58
2022-08-05T10:00:31.684Z,56.52
2022-08-05T10:05:35.588Z,56.82
2022-08-05T10:10:44.458Z,56.37
2022-08-05T10:15:48.675Z,56.58
2022-08-05T10:20:56.379Z,57.11
2022-08-05T10:26:02.261Z,56.70
2022-08-05T10:32:54.721Z,56.59
2022-08-05T10:36:38.241Z,56.77
2022-08-05T10:42:11.437Z,56.98
2022-08-05T10:47:26.530Z,56.55
2022-08-05T10:52:40.068Z,56.63
2022-08-05T10:58:15.620Z,56.78
2022-08-05T11:03:23.063Z,56.78
2022-08-05T11:08:37.951Z,56.75
2022-08-05T11:13:54.721Z,56.72
2022-08-05T11:20:17.095Z,57.14
2022-08-05T11:26:06.222Z,57.13
2022-08-05T11:30:58.266Z,57.27
2022-08-05T11:36:07.980Z,57.11
2022-08-05T11:41:54.347Z,57.36
2022-08-05T11:47:09.597Z,58.15
2022-08-05T11:52:29.244Z,58.08
2022-08-05T11:58:08.639Z,58.32
2022-08-05T12:03:28.695Z,58.75
2022-08-05T12:08:33.898Z,58.21
2022-08-05T12:13:48.478Z,58.60
2022-08-05T12:18:53.688Z,59.40
2022-08-05T12:24:08.441Z,59.21
2022-08-05T12:29:22.807Z,59.74
2022-08-05T12:34:29.766Z,60.29
2022-08-05T12:39:38.640Z,59.98
2022-08-05T12:44:43.242Z,59.86
2022-08-05T12:50:04.782Z,60.45
2022-08-05T12:55:32.750Z,60.59
2022-08-05T13:02:04.870Z,60.51
2022-08-05T13:06:08.232Z,60.82
2022-08-05T13:11:18.322Z,61.23
2022-08-05T13:16:47.523Z,61.07
2022-08-05T13:21:55.944Z,61.09
2022-08-05T13:27:02.838Z,61.23
2022-08-05T13:32:10.185Z,61.50
2022-08-05T13:37:13.787Z,60.84
2022-08-05T13:42:23.989Z,61.34
2022-08-05T13:47:35.860Z,61.13
2022-08-05T13:52:51.669Z,61.48
2022-08-05T13:57:55.461Z,61.70
2022-08-05T14:03:01.063Z,61.37
2022-08-05T14:08:20.262Z,61.96
2022-08-05T14:13:24.269Z,61.90
2022-08-05T14:18:29.792Z,62.13
2022-08-05T14:23:37.283Z,62.13
2022-08-05T14:28:51.954Z,61.97
2022-08-05T14:33:59.513Z,62.37
2022-08-05T14:39:04.661Z,62.32
2022-08-05T14:44:14.440Z,62.67
2022-08-05T14:49:23.711Z,62.21
2022-08-05T14:54:52.802Z,62.62
2022-08-05T14:59:56.978Z,63.15
2022-08-05T15:05:02.355Z,63.25
2022-08-05T15:10:16.563Z,63.45
2022-08-05T15:15:54.943Z,63.49
2022-08-05T15:20:43.579Z,63.97
2022-08-05T15:25:52.692Z,64.17
2022-08-05T15:30:57.379Z,64.51
2022-08-05T15:36:03.667Z,64.91
2022-08-05T15:41:20.730Z,65.15
2022-08-05T15:46:27.129Z,65.18
2022-08-05T15:52:12.568Z,65.50
2022-08-05T15:56:54.548Z,65.81
2022-08-05T16:01:58.433Z,66.15
2022-08-05T16:07:04.725Z,66.25
2022-08-05T16:12:09.693Z,66.64
2022-08-05T16:17:16.542Z,66.81
2022-08-05T16:22:27.593Z,67.07
2022-08-05T16:27:59.721Z,67.51
2022-08-05T16:33:00.599Z,67.88
2022-08-05T16:38:24.406Z,68.02
2022-08-05T16:43:30.038Z,68.39
2022-08-05T16:48:35.371Z,68.50
2022-08-05T16:54:04.927Z,68.82
2022-08-05T16:59:08.683Z,69.09
2022-08-05T17:04:12.061Z,69.39
2022-08-05T17:09:18.784Z,69.39
2022-08-05T17:14:37.496Z,69.78
2022-08-05T17:19:41.928Z,69.86
2022-08-05T17:24:57.481Z,70.01
2022-08-05T17:30:04.586Z,70.25
2022-08-05T17:35:20.575Z,70.25
2022-08-05T17:40:24.517Z,70.60
2022-08-05T17:45:38.252Z,70.82
2022-08-05T17:50:42.313Z,71.04
2022-08-05T17:55:45.993Z,71.35
2022-08-05T18:00:50.692Z,71.28
2022-08-05T18:05:54.601Z,71.69
2022-08-05T18:10:57.909Z,71.99
2022-08-05T18:16:01.798Z,72.03
2022-08-05T18:21:05.932Z,72.12
2022-08-05T18:26:21.964Z,72.20
2022-08-05T18:31:33.072Z,72.42
2022-08-05T18:36:38.835Z,72.49
2022-08-05T18:41:55.434Z,72.64
2022-08-05T18:47:05.056Z,72.82
2022-08-05T18:52:11.038Z,72.94
2022-08-05T18:57:15.698Z,72.94
2022-08-05T19:02:28.198Z,73.28
2022-08-05T19:07:46.349Z,73.52
2022-08-05T19:12:50.507Z,73.73
2022-08-05T19:18:08.596Z,73.71
2022-08-05T19:24:03.622Z,73.71
2022-08-05T19:28:41.985Z,73.73
2022-08-05T19:33:48.751Z,73.85
2022-08-05T19:39:01.843Z,73.92
2022-08-05T19:44:13.459Z,73.93
2022-08-05T19:49:18.238Z,73.89
2022-08-05T19:54:29.535Z,73.96
2022-08-05T20:00:00.902Z,74.02
2022-08-05T20:05:00.129Z,74.15
2022-08-05T20:10:13.507Z,74.21
2022-08-05T20:15:48.124Z,74.29
2022-08-05T20:20:45.739Z,74.55
2022-08-05T20:25:52.310Z,74.59
2022-08-05T20:30:55.853Z,74.71
2022-08-05T20:36:00.178Z,74.64
2022-08-05T20:41:08.095Z,74.67
2022-08-05T20:46:12.420Z,74.70
2022-08-05T20:51:22.448Z,74.82
2022-08-05T20:56:29.126Z,74.84
2022-08-05T21:01:38.172Z,74.83
2022-08-05T21:06:45.253Z,74.90
2022-08-05T21:12:07.388Z,75.03
2022-08-05T21:17:13.537Z,75.21
2022-08-05T21:22:17.590Z,75.38
2022-08-05T21:27:25.217Z,75.37
2022-08-05T21:32:30.519Z,75.34
2022-08-05T21:37:35.134Z,75.46
2022-08-05T21:42:45.754Z,75.27
2022-08-05T21:47:57.052Z,75.13
2022-08-05T21:53:08.469Z,75.00
2022-08-05T21:58:30.709Z,75.45
2022-08-05T22:03:48.560Z,75.35
2022-08-05T22:08:52.879Z,75.35
2022-08-05T22:14:33.884Z,75.10
2022-08-05T22:20:00.696Z,75.40
2022-08-05T22:24:52.512Z,75.58
2022-08-05T22:29:58.151Z,75.17
2022-08-05T22:35:01.466Z,75.29
2022-08-05T22:40:07.232Z,75.18
2022-08-05T22:45:11.229Z,75.32
2022-08-05T22:50:18.526Z,75.53
2022-08-05T22:55:26.707Z,75.42
2022-08-05T23:00:40.883Z,75.55
2022-08-05T23:05:44.550Z,75.48
2022-08-05T23:10:50.902Z,75.79
2022-08-05T23:15:59.599Z,75.55
2022-08-05T23:21:02.952Z,75.53
2022-08-05T23:26:06.724Z,75.75
2022-08-05T23:31:17.051Z,75.85
2022-08-05T23:36:28.231Z,75.93
2022-08-05T23:41:34.269Z,75.83
2022-08-05T23:46:40.779Z,75.83
2022-08-05T23:51:45.948Z,75.94
2022-08-05T23:57:03.460Z,75.73
